sensor_id;sensor_type;location;lat;lon;timestamp;pressure;altitude;pressure_sealevel;temperature;humidity
58698;BME280;44475;53.206;-6.106;2023-09-18T00:00:54;99998.81;;;23.85;56.11
58698;BME280;44475;53.206;-6.106;2023-09-18T00:03:22;99994.31;;;23.76;55.97
58698;BME280;44475;53.206;-6.106;2023-09-18T00:05:53;99999.69;;;23.86;55.84
58698;BME280;44475;53.206;-6.106;2023-09-18T00:08:19;99997.03;;;23.76;56.24
58698;BME280;44475;53.206;-6.106;2023-09-18T00:10:53;99999.63;;;23.77;56.05
58698;BME280;44475;53.206;-6.106;2023-09-18T00:13:21;99994.84;;;23.79;56.25
58698;BME280;44475;53.206;-6.106;2023-09-18T00:15:47;100004.00;;;23.70;56.06
58698;BME280;44475;53.206;-6.106;2023-09-18T00:18:15;99994.16;;;23.77;56.12
58698;BME280;44475;53.206;-6.106;2023-09-18T00:20:42;99992.44;;;23.76;55.97
58698;BME280;44475;53.206;-6.106;2023-09-18T00:23:09;99989.00;;;23.74;56.02
58698;BME280;44475;53.206;-6.106;2023-09-18T00:25:36;99985.28;;;23.84;55.75
58698;BME280;44475;53.206;-6.106;2023-09-18T00:28:03;99987.31;;;23.82;55.92
58698;BME280;44475;53.206;-6.106;2023-09-18T00:30:29;99989.19;;;23.81;56.08
58698;BME280;44475;53.206;-6.106;2023-09-18T00:32:55;99986.97;;;23.76;56.06
58698;BME280;44475;53.206;-6.106;2023-09-18T00:35:22;99990.72;;;23.75;55.94
58698;BME280;44475;53.206;-6.106;2023-09-18T00:37:49;99979.22;;;23.72;56.30
58698;BME280;44475;53.206;-6.106;2023-09-18T00:40:16;99977.19;;;23.74;56.22
58698;BME280;44475;53.206;-6.106;2023-09-18T00:42:43;99979.28;;;23.80;56.08
58698;BME280;44475;53.206;-6.106;2023-09-18T00:45:09;99977.84;;;23.67;56.10
58698;BME280;44475;53.206;-6.106;2023-09-18T00:47:36;99968.53;;;23.60;56.43
58698;BME280;44475;53.206;-6.106;2023-09-18T00:50:04;99967.97;;;23.75;56.42
58698;BME280;44475;53.206;-6.106;2023-09-18T00:52:32;99976.56;;;23.62;56.56
58698;BME280;44475;53.206;-6.106;2023-09-18T00:54:59;99970.00;;;23.73;56.57
58698;BME280;44475;53.206;-6.106;2023-09-18T00:57:26;99971.53;;;23.67;56.44
58698;BME280;44475;53.206;-6.106;2023-09-18T00:59:52;99966.41;;;23.72;56.47
58698;BME280;44475;53.206;-6.106;2023-09-18T01:02:19;99969.38;;;23.34;57.23
58698;BME280;44475;53.206;-6.106;2023-09-18T01:04:48;99963.00;;;23.52;57.05
58698;BME280;44475;53.206;-6.106;2023-09-18T01:07:15;99958.00;;;23.47;57.36
58698;BME280;44475;53.206;-6.106;2023-09-18T01:09:42;99953.94;;;23.51;57.07
58698;BME280;44475;53.206;-6.106;2023-09-18T01:12:21;99949.00;;;23.73;56.49
58698;BME280;44475;53.206;-6.106;2023-09-18T01:15:02;99943.53;;;23.73;56.10
58698;BME280;44475;53.206;-6.106;2023-09-18T01:17:35;99934.94;;;23.68;56.58
58698;BME280;44475;53.206;-6.106;2023-09-18T01:20:03;99937.38;;;23.53;56.87
58698;BME280;44475;53.206;-6.106;2023-09-18T01:22:31;99937.16;;;23.64;56.60
58698;BME280;44475;53.206;-6.106;2023-09-18T01:24:58;99931.19;;;23.69;56.47
58698;BME280;44475;53.206;-6.106;2023-09-18T01:27:25;99924.94;;;23.58;56.54
58698;BME280;44475;53.206;-6.106;2023-09-18T01:29:51;99931.41;;;23.57;57.02
58698;BME280;44475;53.206;-6.106;2023-09-18T01:32:19;99928.03;;;23.37;57.46
58698;BME280;44475;53.206;-6.106;2023-09-18T01:34:52;99919.81;;;23.55;56.96
58698;BME280;44475;53.206;-6.106;2023-09-18T01:37:22;99910.50;;;23.48;57.11
58698;BME280;44475;53.206;-6.106;2023-09-18T01:39:51;99908.31;;;23.52;56.87
58698;BME280;44475;53.206;-6.106;2023-09-18T01:42:18;99905.53;;;23.43;56.84
58698;BME280;44475;53.206;-6.106;2023-09-18T01:44:46;99896.69;;;23.49;56.85
58698;BME280;44475;53.206;-6.106;2023-09-18T01:47:18;99890.53;;;23.74;56.37
58698;BME280;44475;53.206;-6.106;2023-09-18T01:49:44;99884.00;;;23.67;56.52
58698;BME280;44475;53.206;-6.106;2023-09-18T01:52:12;99885.59;;;23.51;56.65
58698;BME280;44475;53.206;-6.106;2023-09-18T01:54:39;99851.09;;;23.23;57.10
58698;BME280;44475;53.206;-6.106;2023-09-18T01:57:06;99893.25;;;23.47;56.73
58698;BME280;44475;53.206;-6.106;2023-09-18T01:59:34;99883.59;;;23.62;56.32
58698;BME280;44475;53.206;-6.106;2023-09-18T02:02:02;99887.66;;;23.57;56.59
58698;BME280;44475;53.206;-6.106;2023-09-18T02:04:33;99882.19;;;23.57;56.36
58698;BME280;44475;53.206;-6.106;2023-09-18T02:07:00;99878.56;;;23.48;56.86
58698;BME280;44475;53.206;-6.106;2023-09-18T02:09:26;99877.50;;;23.41;57.18
58698;BME280;44475;53.206;-6.106;2023-09-18T02:11:52;99875.31;;;23.45;57.38
58698;BME280;44475;53.206;-6.106;2023-09-18T02:14:19;99879.56;;;23.47;56.96
58698;BME280;44475;53.206;-6.106;2023-09-18T02:16:45;99872.22;;;23.66;56.33
58698;BME280;44475;53.206;-6.106;2023-09-18T02:19:13;99868.88;;;23.54;56.61
58698;BME280;44475;53.206;-6.106;2023-09-18T02:21:40;99862.75;;;23.61;56.53
58698;BME280;44475;53.206;-6.106;2023-09-18T02:24:07;99866.28;;;23.53;56.75
58698;BME280;44475;53.206;-6.106;2023-09-18T02:26:33;99863.66;;;23.69;56.18
58698;BME280;44475;53.206;-6.106;2023-09-18T02:29:04;99859.41;;;23.48;57.01
58698;BME280;44475;53.206;-6.106;2023-09-18T02:31:30;99860.16;;;23.59;56.73
58698;BME280;44475;53.206;-6.106;2023-09-18T02:33:56;99865.28;;;23.54;56.60
58698;BME280;44475;53.206;-6.106;2023-09-18T02:36:23;99859.78;;;23.45;56.61
58698;BME280;44475;53.206;-6.106;2023-09-18T02:38:49;99848.88;;;23.54;56.61
58698;BME280;44475;53.206;-6.106;2023-09-18T02:41:15;99807.53;;;23.22;56.86
58698;BME280;44475;53.206;-6.106;2023-09-18T02:43:41;99836.75;;;23.56;56.41
58698;BME280;44475;53.206;-6.106;2023-09-18T02:46:08;99832.09;;;23.48;56.57
58698;BME280;44475;53.206;-6.106;2023-09-18T02:48:35;99829.84;;;23.44;56.57
58698;BME280;44475;53.206;-6.106;2023-09-18T02:51:02;99829.88;;;23.52;56.88
58698;BME280;44475;53.206;-6.106;2023-09-18T02:53:29;99826.34;;;23.60;56.31
58698;BME280;44475;53.206;-6.106;2023-09-18T02:55:58;99828.84;;;23.45;56.82
58698;BME280;44475;53.206;-6.106;2023-09-18T02:58:25;99824.75;;;23.49;56.73
58698;BME280;44475;53.206;-6.106;2023-09-18T03:00:53;99826.63;;;23.48;56.55
58698;BME280;44475;53.206;-6.106;2023-09-18T03:03:21;99819.63;;;23.46;56.67
58698;BME280;44475;53.206;-6.106;2023-09-18T03:05:48;99828.88;;;23.53;56.56
58698;BME280;44475;53.206;-6.106;2023-09-18T03:08:15;99821.88;;;23.59;56.11
58698;BME280;44475;53.206;-6.106;2023-09-18T03:10:43;99829.06;;;23.60;56.21
58698;BME280;44475;53.206;-6.106;2023-09-18T03:13:11;99823.38;;;23.45;56.96
58698;BME280;44475;53.206;-6.106;2023-09-18T03:15:38;99820.00;;;23.59;56.46
58698;BME280;44475;53.206;-6.106;2023-09-18T03:18:06;99818.78;;;23.54;56.56
58698;BME280;44475;53.206;-6.106;2023-09-18T03:20:35;99812.94;;;23.48;56.49
58698;BME280;44475;53.206;-6.106;2023-09-18T03:23:02;99817.19;;;23.43;56.50
58698;BME280;44475;53.206;-6.106;2023-09-18T03:25:29;99810.75;;;23.52;56.70
58698;BME280;44475;53.206;-6.106;2023-09-18T03:27:57;99807.75;;;23.37;56.67
58698;BME280;44475;53.206;-6.106;2023-09-18T03:30:28;99808.09;;;23.34;57.07
58698;BME280;44475;53.206;-6.106;2023-09-18T03:32:55;99798.28;;;23.58;56.41
58698;BME280;44475;53.206;-6.106;2023-09-18T03:35:23;99807.34;;;23.58;56.02
58698;BME280;44475;53.206;-6.106;2023-09-18T03:37:52;99803.94;;;23.56;56.14
58698;BME280;44475;53.206;-6.106;2023-09-18T03:40:21;99800.81;;;23.43;56.52
58698;BME280;44475;53.206;-6.106;2023-09-18T03:42:48;99802.88;;;23.49;56.41
58698;BME280;44475;53.206;-6.106;2023-09-18T03:45:15;99801.13;;;23.39;56.41
58698;BME280;44475;53.206;-6.106;2023-09-18T03:47:45;99799.44;;;23.47;56.49
58698;BME280;44475;53.206;-6.106;2023-09-18T03:50:12;99798.06;;;23.43;56.44
58698;BME280;44475;53.206;-6.106;2023-09-18T03:52:39;99801.81;;;23.42;56.83
58698;BME280;44475;53.206;-6.106;2023-09-18T03:55:07;99798.13;;;23.59;56.08
58698;BME280;44475;53.206;-6.106;2023-09-18T03:57:34;99801.94;;;23.32;56.62
58698;BME280;44475;53.206;-6.106;2023-09-18T04:00:01;99808.63;;;23.37;56.66
58698;BME280;44475;53.206;-6.106;2023-09-18T04:02:27;99803.44;;;23.61;55.95
58698;BME280;44475;53.206;-6.106;2023-09-18T04:04:54;99799.09;;;23.42;56.47
58698;BME280;44475;53.206;-6.106;2023-09-18T04:07:21;99807.81;;;23.45;56.33
58698;BME280;44475;53.206;-6.106;2023-09-18T04:09:47;99804.00;;;23.38;56.41
58698;BME280;44475;53.206;-6.106;2023-09-18T04:12:13;99803.72;;;23.49;56.11
58698;BME280;44475;53.206;-6.106;2023-09-18T04:14:40;99805.81;;;23.56;56.33
58698;BME280;44475;53.206;-6.106;2023-09-18T04:17:06;99800.88;;;23.59;55.96
58698;BME280;44475;53.206;-6.106;2023-09-18T04:19:32;99803.16;;;23.64;55.73
58698;BME280;44475;53.206;-6.106;2023-09-18T04:21:59;99800.47;;;23.46;56.33
58698;BME280;44475;53.206;-6.106;2023-09-18T04:24:26;99793.13;;;23.46;56.22
58698;BME280;44475;53.206;-6.106;2023-09-18T04:26:52;99787.59;;;23.38;56.18
58698;BME280;44475;53.206;-6.106;2023-09-18T04:29:19;99781.84;;;23.49;55.86
58698;BME280;44475;53.206;-6.106;2023-09-18T04:31:46;99781.84;;;23.49;55.77
58698;BME280;44475;53.206;-6.106;2023-09-18T04:34:14;99766.94;;;23.35;56.49
58698;BME280;44475;53.206;-6.106;2023-09-18T04:36:40;99768.91;;;23.60;55.68
58698;BME280;44475;53.206;-6.106;2023-09-18T04:39:07;99770.59;;;23.53;55.69
58698;BME280;44475;53.206;-6.106;2023-09-18T04:41:35;99771.63;;;23.52;55.87
58698;BME280;44475;53.206;-6.106;2023-09-18T04:44:04;99727.94;;;23.25;55.65
58698;BME280;44475;53.206;-6.106;2023-09-18T04:46:32;99776.09;;;23.61;55.53
58698;BME280;44475;53.206;-6.106;2023-09-18T04:48:59;99767.84;;;23.44;55.54
58698;BME280;44475;53.206;-6.106;2023-09-18T04:51:25;99783.28;;;23.27;55.99
58698;BME280;44475;53.206;-6.106;2023-09-18T04:53:51;99774.81;;;23.38;55.70
58698;BME280;44475;53.206;-6.106;2023-09-18T04:56:18;99778.25;;;23.49;55.83
58698;BME280;44475;53.206;-6.106;2023-09-18T04:58:45;99781.03;;;23.57;55.39
58698;BME280;44475;53.206;-6.106;2023-09-18T05:01:11;99782.22;;;23.46;55.58
58698;BME280;44475;53.206;-6.106;2023-09-18T05:03:39;99784.38;;;23.34;56.21
58698;BME280;44475;53.206;-6.106;2023-09-18T05:06:05;99765.41;;;23.41;55.77
58698;BME280;44475;53.206;-6.106;2023-09-18T05:08:31;99764.75;;;23.47;55.52
58698;BME280;44475;53.206;-6.106;2023-09-18T05:10:58;99759.28;;;23.47;55.49
58698;BME280;44475;53.206;-6.106;2023-09-18T05:13:24;99757.69;;;23.36;56.09
58698;BME280;44475;53.206;-6.106;2023-09-18T05:15:50;99755.88;;;23.45;55.55
58698;BME280;44475;53.206;-6.106;2023-09-18T05:18:17;99759.59;;;23.36;55.96
58698;BME280;44475;53.206;-6.106;2023-09-18T05:20:43;99752.97;;;23.47;55.79
58698;BME280;44475;53.206;-6.106;2023-09-18T05:23:09;99763.78;;;23.22;55.98
58698;BME280;44475;53.206;-6.106;2023-09-18T05:25:36;99765.88;;;23.28;56.08
58698;BME280;44475;53.206;-6.106;2023-09-18T05:28:04;99767.69;;;23.46;55.28
58698;BME280;44475;53.206;-6.106;2023-09-18T05:30:35;99769.00;;;23.42;55.51
58698;BME280;44475;53.206;-6.106;2023-09-18T05:33:05;99768.94;;;23.25;55.75
58698;BME280;44475;53.206;-6.106;2023-09-18T05:35:32;99772.41;;;23.35;55.47
58698;BME280;44475;53.206;-6.106;2023-09-18T05:37:59;99769.41;;;23.20;55.97
58698;BME280;44475;53.206;-6.106;2023-09-18T05:40:25;99772.44;;;23.08;56.31
58698;BME280;44475;53.206;-6.106;2023-09-18T05:42:54;99770.16;;;23.31;55.74
58698;BME280;44475;53.206;-6.106;2023-09-18T05:45:20;99768.97;;;23.33;55.37
58698;BME280;44475;53.206;-6.106;2023-09-18T05:47:48;99777.03;;;23.35;55.44
58698;BME280;44475;53.206;-6.106;2023-09-18T05:50:14;99778.19;;;23.32;55.63
58698;BME280;44475;53.206;-6.106;2023-09-18T05:52:45;99785.03;;;23.36;55.54
58698;BME280;44475;53.206;-6.106;2023-09-18T05:55:12;99793.66;;;23.15;55.81
58698;BME280;44475;53.206;-6.106;2023-09-18T05:57:39;99800.38;;;23.29;55.39
58698;BME280;44475;53.206;-6.106;2023-09-18T06:00:05;99782.03;;;23.13;55.96
58698;BME280;44475;53.206;-6.106;2023-09-18T06:02:41;99793.22;;;23.36;55.25
58698;BME280;44475;53.206;-6.106;2023-09-18T06:05:07;99785.75;;;23.47;55.24
58698;BME280;44475;53.206;-6.106;2023-09-18T06:07:37;99787.22;;;23.24;55.34
58698;BME280;44475;53.206;-6.106;2023-09-18T06:10:03;99788.06;;;23.25;55.42
58698;BME280;44475;53.206;-6.106;2023-09-18T06:12:30;99792.56;;;23.34;55.23
58698;BME280;44475;53.206;-6.106;2023-09-18T06:14:56;99790.63;;;23.26;55.33
58698;BME280;44475;53.206;-6.106;2023-09-18T06:17:22;99787.09;;;23.34;55.16
58698;BME280;44475;53.206;-6.106;2023-09-18T06:19:49;99779.91;;;23.33;55.13
58698;BME280;44475;53.206;-6.106;2023-09-18T06:22:16;99794.91;;;23.29;55.67
58698;BME280;44475;53.206;-6.106;2023-09-18T06:24:43;99786.00;;;23.27;55.54
58698;BME280;44475;53.206;-6.106;2023-09-18T06:27:09;99795.13;;;23.36;54.89
58698;BME280;44475;53.206;-6.106;2023-09-18T06:29:37;99795.56;;;23.23;55.47
58698;BME280;44475;53.206;-6.106;2023-09-18T06:32:08;99800.47;;;23.46;54.67
58698;BME280;44475;53.206;-6.106;2023-09-18T06:34:34;99801.13;;;23.39;55.07
58698;BME280;44475;53.206;-6.106;2023-09-18T06:37:01;99813.53;;;23.25;55.48
58698;BME280;44475;53.206;-6.106;2023-09-18T06:39:27;99808.34;;;23.14;55.52
58698;BME280;44475;53.206;-6.106;2023-09-18T06:41:53;99801.34;;;23.19;55.62
58698;BME280;44475;53.206;-6.106;2023-09-18T06:44:19;99804.13;;;23.28;55.62
58698;BME280;44475;53.206;-6.106;2023-09-18T06:46:47;99802.09;;;23.30;55.75
58698;BME280;44475;53.206;-6.106;2023-09-18T06:49:13;99809.00;;;23.16;56.17
58698;BME280;44475;53.206;-6.106;2023-09-18T06:51:40;99813.34;;;23.00;56.76
58698;BME280;44475;53.206;-6.106;2023-09-18T06:54:06;99815.13;;;22.83;57.31
58698;BME280;44475;53.206;-6.106;2023-09-18T06:56:32;99818.00;;;23.08;56.36
58698;BME280;44475;53.206;-6.106;2023-09-18T06:58:58;99817.16;;;23.34;55.54
58698;BME280;44475;53.206;-6.106;2023-09-18T07:01:24;99827.63;;;23.47;55.10
58698;BME280;44475;53.206;-6.106;2023-09-18T07:03:52;99827.63;;;23.47;54.84
58698;BME280;44475;53.206;-6.106;2023-09-18T07:06:18;99832.44;;;23.45;54.82
58698;BME280;44475;53.206;-6.106;2023-09-18T07:08:48;99833.88;;;23.04;56.00
58698;BME280;44475;53.206;-6.106;2023-09-18T07:11:16;99840.16;;;23.23;55.76
58698;BME280;44475;53.206;-6.106;2023-09-18T07:13:42;99849.13;;;22.88;56.90
58698;BME280;44475;53.206;-6.106;2023-09-18T07:16:09;99846.16;;;22.82;56.73
58698;BME280;44475;53.206;-6.106;2023-09-18T07:18:36;99851.84;;;22.70;57.55
58698;BME280;44475;53.206;-6.106;2023-09-18T07:21:02;99852.38;;;22.74;57.71
58698;BME280;44475;53.206;-6.106;2023-09-18T07:23:29;99853.31;;;22.64;57.67
58698;BME280;44475;53.206;-6.106;2023-09-18T07:25:55;99845.97;;;22.65;57.41
58698;BME280;44475;53.206;-6.106;2023-09-18T07:28:21;99841.22;;;22.67;57.99
58698;BME280;44475;53.206;-6.106;2023-09-18T07:30:48;99836.78;;;22.66;57.56
58698;BME280;44475;53.206;-6.106;2023-09-18T07:33:14;99852.06;;;22.77;57.48
58698;BME280;44475;53.206;-6.106;2023-09-18T07:35:49;99856.22;;;22.81;57.37
58698;BME280;44475;53.206;-6.106;2023-09-18T07:38:17;99855.91;;;22.84;57.12
58698;BME280;44475;53.206;-6.106;2023-09-18T07:40:46;99859.53;;;22.75;57.19
58698;BME280;44475;53.206;-6.106;2023-09-18T07:43:13;99868.75;;;22.74;57.46
58698;BME280;44475;53.206;-6.106;2023-09-18T07:45:40;99869.00;;;22.99;56.74
58698;BME280;44475;53.206;-6.106;2023-09-18T07:48:07;99874.63;;;22.79;57.03
58698;BME280;44475;53.206;-6.106;2023-09-18T07:50:34;99871.59;;;22.82;57.25
58698;BME280;44475;53.206;-6.106;2023-09-18T07:53:01;99880.56;;;22.93;56.85
58698;BME280;44475;53.206;-6.106;2023-09-18T07:55:28;99875.88;;;23.03;56.64
58698;BME280;44475;53.206;-6.106;2023-09-18T07:57:55;99869.09;;;22.89;57.13
58698;BME280;44475;53.206;-6.106;2023-09-18T08:00:21;99883.44;;;23.09;56.55
58698;BME280;44475;53.206;-6.106;2023-09-18T08:02:49;99880.00;;;23.07;56.48
58698;BME280;44475;53.206;-6.106;2023-09-18T08:05:16;99874.63;;;22.97;56.90
58698;BME280;44475;53.206;-6.106;2023-09-18T08:07:43;99883.91;;;22.86;57.04
58698;BME280;44475;53.206;-6.106;2023-09-18T08:10:09;99890.00;;;22.98;56.55
58698;BME280;44475;53.206;-6.106;2023-09-18T08:12:36;99888.78;;;22.93;56.85
58698;BME280;44475;53.206;-6.106;2023-09-18T08:15:02;99888.94;;;22.91;57.21
58698;BME280;44475;53.206;-6.106;2023-09-18T08:17:29;99908.66;;;22.85;57.38
58698;BME280;44475;53.206;-6.106;2023-09-18T08:19:55;99904.91;;;22.86;57.51
58698;BME280;44475;53.206;-6.106;2023-09-18T08:22:21;99902.53;;;22.73;57.69
58698;BME280;44475;53.206;-6.106;2023-09-18T08:24:48;99905.06;;;22.84;57.27
58698;BME280;44475;53.206;-6.106;2023-09-18T08:27:15;99902.44;;;22.93;57.25
58698;BME280;44475;53.206;-6.106;2023-09-18T08:29:45;99905.06;;;22.84;57.54
58698;BME280;44475;53.206;-6.106;2023-09-18T08:32:11;99900.22;;;22.78;57.86
58698;BME280;44475;53.206;-6.106;2023-09-18T08:34:38;99892.88;;;22.78;57.51
58698;BME280;44475;53.206;-6.106;2023-09-18T08:37:04;99907.69;;;22.76;57.98
58698;BME280;44475;53.206;-6.106;2023-09-18T08:39:30;99909.50;;;22.85;57.44
58698;BME280;44475;53.206;-6.106;2023-09-18T08:42:04;99903.28;;;22.93;57.10
58698;BME280;44475;53.206;-6.106;2023-09-18T08:44:31;99914.38;;;22.92;57.32
58698;BME280;44475;53.206;-6.106;2023-09-18T08:46:57;99924.34;;;23.01;57.37
58698;BME280;44475;53.206;-6.106;2023-09-18T08:49:24;99934.56;;;22.99;57.33
58698;BME280;44475;53.206;-6.106;2023-09-18T08:51:53;99935.50;;;23.08;57.12
58698;BME280;44475;53.206;-6.106;2023-09-18T08:54:21;99937.53;;;23.06;56.96
58698;BME280;44475;53.206;-6.106;2023-09-18T08:56:47;99939.84;;;23.19;56.67
58698;BME280;44475;53.206;-6.106;2023-09-18T08:59:14;99944.00;;;23.05;57.20
58698;BME280;44475;53.206;-6.106;2023-09-18T09:01:42;99928.31;;;23.07;56.89
58698;BME280;44475;53.206;-6.106;2023-09-18T09:04:08;99936.56;;;23.15;56.61
58698;BME280;44475;53.206;-6.106;2023-09-18T09:06:34;99945.91;;;23.04;57.03
58698;BME280;44475;53.206;-6.106;2023-09-18T09:09:02;99944.16;;;23.22;56.51
58698;BME280;44475;53.206;-6.106;2023-09-18T09:11:29;99915.44;;;22.99;56.82
58698;BME280;44475;53.206;-6.106;2023-09-18T09:16:39;99927.00;;;23.11;56.78
58698;BME280;44475;53.206;-6.106;2023-09-18T09:19:06;99931.44;;;23.12;56.86
58698;BME280;44475;53.206;-6.106;2023-09-18T09:21:40;99934.88;;;23.14;56.91
58698;BME280;44475;53.206;-6.106;2023-09-18T09:24:07;99922.13;;;23.23;56.30
58698;BME280;44475;53.206;-6.106;2023-09-18T09:26:34;99934.78;;;23.06;56.74
58698;BME280;44475;53.206;-6.106;2023-09-18T09:29:18;99924.34;;;23.01;57.20
58698;BME280;44475;53.206;-6.106;2023-09-18T09:31:46;99924.97;;;22.95;57.23
58698;BME280;44475;53.206;-6.106;2023-09-18T09:34:23;99916.53;;;23.06;57.14
58698;BME280;44475;53.206;-6.106;2023-09-18T09:36:56;99910.81;;;23.18;56.80
58698;BME280;44475;53.206;-6.106;2023-09-18T09:39:23;99904.88;;;23.23;56.50
58698;BME280;44475;53.206;-6.106;2023-09-18T09:41:54;99899.72;;;23.19;56.66
58698;BME280;44475;53.206;-6.106;2023-09-18T09:44:20;99922.84;;;23.07;57.08
58698;BME280;44475;53.206;-6.106;2023-09-18T09:46:50;99927.59;;;23.05;56.90
58698;BME280;44475;53.206;-6.106;2023-09-18T09:49:17;99927.38;;;23.16;56.58
58698;BME280;44475;53.206;-6.106;2023-09-18T09:51:46;99936.81;;;23.22;56.65
58698;BME280;44475;53.206;-6.106;2023-09-18T09:54:12;99933.34;;;23.38;55.72
58698;BME280;44475;53.206;-6.106;2023-09-18T09:56:49;99922.25;;;23.40;55.16
58698;BME280;44475;53.206;-6.106;2023-09-18T09:59:17;99962.03;;;23.61;55.02
58698;BME280;44475;53.206;-6.106;2023-09-18T10:01:48;99965.50;;;23.63;54.89
58698;BME280;44475;53.206;-6.106;2023-09-18T10:04:18;99969.38;;;23.34;55.58
58698;BME280;44475;53.206;-6.106;2023-09-18T10:06:52;99968.59;;;23.23;56.25
58698;BME280;44475;53.206;-6.106;2023-09-18T10:09:22;99981.09;;;23.07;56.73
58698;BME280;44475;53.206;-6.106;2023-09-18T10:11:56;99985.63;;;23.35;56.04
58698;BME280;44475;53.206;-6.106;2023-09-18T10:14:29;99985.00;;;23.23;55.95
58698;BME280;44475;53.206;-6.106;2023-09-18T10:17:01;99945.28;;;22.92;56.25
58698;BME280;44475;53.206;-6.106;2023-09-18T10:19:45;99979.97;;;23.37;55.65
58698;BME280;44475;53.206;-6.106;2023-09-18T10:22:40;99982.41;;;23.22;56.09
58698;BME280;44475;53.206;-6.106;2023-09-18T10:25:13;99987.88;;;23.22;56.47
58698;BME280;44475;53.206;-6.106;2023-09-18T10:27:46;99972.19;;;23.24;56.24
58698;BME280;44475;53.206;-6.106;2023-09-18T10:30:16;99977.16;;;23.28;55.98
58698;BME280;44475;53.206;-6.106;2023-09-18T10:32:46;99968.53;;;23.15;56.39
58698;BME280;44475;53.206;-6.106;2023-09-18T10:35:14;99978.53;;;23.96;55.03
58698;BME280;44475;53.206;-6.106;2023-09-18T10:37:46;99981.84;;;23.82;54.83
58698;BME280;44475;53.206;-6.106;2023-09-18T10:40:14;99987.31;;;23.55;55.60
58698;BME280;44475;53.206;-6.106;2023-09-18T10:42:42;99991.00;;;23.45;55.72
58698;BME280;44475;53.206;-6.106;2023-09-18T10:45:12;99996.53;;;23.35;56.10
58698;BME280;44475;53.206;-6.106;2023-09-18T10:47:44;100003.94;;;23.43;55.75
58698;BME280;44475;53.206;-6.106;2023-09-18T10:50:23;100013.47;;;23.39;55.94
58698;BME280;44475;53.206;-6.106;2023-09-18T10:52:51;100001.69;;;23.38;55.69
58698;BME280;44475;53.206;-6.106;2023-09-18T10:55:17;99994.41;;;23.47;55.36
58698;BME280;44475;53.206;-6.106;2023-09-18T10:57:54;99986.72;;;23.24;56.30
58698;BME280;44475;53.206;-6.106;2023-09-18T11:00:29;99991.16;;;23.25;56.24
58698;BME280;44475;53.206;-6.106;2023-09-18T11:03:15;99996.38;;;23.18;56.49
58698;BME280;44475;53.206;-6.106;2023-09-18T11:06:04;99996.78;;;23.24;56.58
58698;BME280;44475;53.206;-6.106;2023-09-18T11:08:33;99985.91;;;23.32;55.95
58698;BME280;44475;53.206;-6.106;2023-09-18T11:11:09;99997.81;;;23.23;56.51
58698;BME280;44475;53.206;-6.106;2023-09-18T11:13:43;99992.50;;;23.21;56.58
58698;BME280;44475;53.206;-6.106;2023-09-18T11:16:16;99989.84;;;23.11;56.81
58698;BME280;44475;53.206;-6.106;2023-09-18T11:18:50;99993.56;;;23.28;56.35
58698;BME280;44475;53.206;-6.106;2023-09-18T11:21:23;99993.31;;;23.40;56.06
58698;BME280;44475;53.206;-6.106;2023-09-18T11:26:37;100001.00;;;23.18;56.66
58698;BME280;44475;53.206;-6.106;2023-09-18T11:29:08;99989.91;;;23.19;56.46
58698;BME280;44475;53.206;-6.106;2023-09-18T11:36:49;99997.63;;;23.43;55.90
58698;BME280;44475;53.206;-6.106;2023-09-18T11:39:39;99993.41;;;23.30;56.49
58698;BME280;44475;53.206;-6.106;2023-09-18T11:42:18;99990.44;;;23.42;56.14
58698;BME280;44475;53.206;-6.106;2023-09-18T11:44:46;99990.00;;;23.73;55.20
58698;BME280;44475;53.206;-6.106;2023-09-18T11:47:16;99993.72;;;23.64;55.34
58698;BME280;44475;53.206;-6.106;2023-09-18T11:52:25;99989.16;;;23.73;55.16
58698;BME280;44475;53.206;-6.106;2023-09-18T11:54:52;99992.69;;;23.65;55.18
58698;BME280;44475;53.206;-6.106;2023-09-18T11:57:18;99982.34;;;23.77;54.87
58698;BME280;44475;53.206;-6.106;2023-09-18T11:59:46;99973.13;;;23.78;54.84
58698;BME280;44475;53.206;-6.106;2023-09-18T12:02:33;99980.63;;;23.76;54.74
58698;BME280;44475;53.206;-6.106;2023-09-18T12:05:19;99987.56;;;23.88;54.51
58698;BME280;44475;53.206;-6.106;2023-09-18T12:07:46;99971.88;;;23.72;54.72
58698;BME280;44475;53.206;-6.106;2023-09-18T12:10:16;99953.38;;;23.93;54.70
58698;BME280;44475;53.206;-6.106;2023-09-18T12:12:47;99958.31;;;24.24;53.68
58698;BME280;44475;53.206;-6.106;2023-09-18T12:15:16;99958.41;;;24.41;53.44
58698;BME280;44475;53.206;-6.106;2023-09-18T12:17:43;99959.31;;;24.23;53.68
58698;BME280;44475;53.206;-6.106;2023-09-18T12:20:15;99964.56;;;24.43;53.23
58698;BME280;44475;53.206;-6.106;2023-09-18T12:22:48;99970.25;;;24.50;53.02
58698;BME280;44475;53.206;-6.106;2023-09-18T12:25:16;99958.78;;;24.63;52.60
58698;BME280;44475;53.206;-6.106;2023-09-18T12:27:44;99957.66;;;24.31;53.04
58698;BME280;44475;53.206;-6.106;2023-09-18T12:30:12;99966.28;;;24.09;53.25
58698;BME280;44475;53.206;-6.106;2023-09-18T12:32:41;99969.69;;;23.76;54.35
58698;BME280;44475;53.206;-6.106;2023-09-18T12:35:08;99965.09;;;23.58;55.26
58698;BME280;44475;53.206;-6.106;2023-09-18T12:37:44;99987.41;;;23.45;55.72
58698;BME280;44475;53.206;-6.106;2023-09-18T12:40:23;100025.25;;;23.76;54.93
58698;BME280;44475;53.206;-6.106;2023-09-18T12:42:50;100017.22;;;23.75;54.69
58698;BME280;44475;53.206;-6.106;2023-09-18T12:45:17;100020.19;;;23.63;55.10
58698;BME280;44475;53.206;-6.106;2023-09-18T12:47:43;100018.78;;;23.77;54.50
58698;BME280;44475;53.206;-6.106;2023-09-18T12:50:13;100029.69;;;23.59;55.23
58698;BME280;44475;53.206;-6.106;2023-09-18T12:52:42;100018.38;;;23.72;54.77
58698;BME280;44475;53.206;-6.106;2023-09-18T12:55:20;100028.31;;;23.73;54.49
58698;BME280;44475;53.206;-6.106;2023-09-18T12:57:46;100008.41;;;23.63;55.24
58698;BME280;44475;53.206;-6.106;2023-09-18T13:00:13;99978.91;;;23.75;54.83
58698;BME280;44475;53.206;-6.106;2023-09-18T13:02:44;100000.84;;;23.83;54.48
58698;BME280;44475;53.206;-6.106;2023-09-18T13:05:10;100003.56;;;23.56;55.19
58698;BME280;44475;53.206;-6.106;2023-09-18T13:07:46;99992.13;;;23.61;54.96
58698;BME280;44475;53.206;-6.106;2023-09-18T13:10:13;99995.09;;;23.49;55.42